createdAt,value
2022-09-27T00:01:58.820Z,12.30
2022-09-27T00:04:26.688Z,12.30
2022-09-27T00:06:54.690Z,12.30
2022-09-27T00:09:22.665Z,12.30
2022-09-27T00:11:50.781Z,12.30
2022-09-27T00:14:19.375Z,12.20
2022-09-27T00:16:48.823Z,12.20
2022-09-27T00:19:19.128Z,12.20
2022-09-27T00:21:47.657Z,12.20
2022-09-27T00:24:17.572Z,12.20
2022-09-27T00:26:46.928Z,12.20
2022-09-27T00:29:16.186Z,12.20
2022-09-27T00:31:45.806Z,12.20
2022-09-27T00:34:20.521Z,12.20
2022-09-27T00:36:49.129Z,12.20
2022-09-27T00:39:17.499Z,12.20
2022-09-27T00:41:45.846Z,12.20
2022-09-27T00:44:52.168Z,12.20
2022-09-27T00:47:25.997Z,12.20
2022-09-27T00:49:59.741Z,12.20
2022-09-27T00:52:31.571Z,12.20
2022-09-27T00:55:02.483Z,12.20
2022-09-27T00:57:30.550Z,12.20
2022-09-27T01:00:03.577Z,12.20
2022-09-27T01:02:31.933Z,12.20
2022-09-27T01:05:02.113Z,12.20
2022-09-27T01:07:30.039Z,12.10
2022-09-27T01:09:58.471Z,12.10
2022-09-27T01:12:37.278Z,12.10
2022-09-27T01:15:14.832Z,12.20
2022-09-27T01:17:53.321Z,12.10
2022-09-27T01:20:45.246Z,12.10
2022-09-27T01:23:28.260Z,12.10
2022-09-27T01:26:10.907Z,12.10
2022-09-27T01:28:56.570Z,12.10
2022-09-27T01:31:33.670Z,12.10
2022-09-27T01:34:07.119Z,12.10
2022-09-27T01:36:44.320Z,12.10
2022-09-27T01:39:24.230Z,12.10
2022-09-27T01:42:03.833Z,12.10
2022-09-27T01:44:38.227Z,12.10
2022-09-27T01:47:14.800Z,12.10
2022-09-27T01:49:50.511Z,12.10
2022-09-27T01:52:24.030Z,12.00
2022-09-27T01:54:57.410Z,12.00
2022-09-27T01:57:28.862Z,12.00
2022-09-27T02:00:02.123Z,12.00
2022-09-27T02:02:33.869Z,12.10
2022-09-27T02:05:06.882Z,12.00
2022-09-27T02:07:41.878Z,12.00
2022-09-27T02:10:16.426Z,12.00
2022-09-27T02:12:52.903Z,12.00
2022-09-27T02:15:21.295Z,12.00
2022-09-27T02:17:59.445Z,12.00
2022-09-27T02:20:32.297Z,12.00
2022-09-27T02:23:11.665Z,12.00
2022-09-27T02:25:43.958Z,12.00
2022-09-27T02:28:22.416Z,12.00
2022-09-27T02:30:50.508Z,12.00
2022-09-27T02:33:24.510Z,12.00
2022-09-27T02:35:52.428Z,12.00
2022-09-27T02:38:21.059Z,12.00
2022-09-27T02:40:49.539Z,12.00
2022-09-27T02:43:19.955Z,12.00
2022-09-27T02:46:01.333Z,12.00
2022-09-27T02:48:39.314Z,11.90
2022-09-27T02:51:20.664Z,12.00
2022-09-27T02:53:56.223Z,11.90
2022-09-27T02:56:32.810Z,11.90
2022-09-27T02:59:10.122Z,11.90
2022-09-27T03:01:46.525Z,11.90
2022-09-27T03:04:23.102Z,11.90
2022-09-27T03:06:53.364Z,11.90
2022-09-27T03:09:21.546Z,11.90
2022-09-27T03:11:49.687Z,11.90
2022-09-27T03:14:17.650Z,11.90
2022-09-27T03:16:45.618Z,11.90
2022-09-27T03:19:15.044Z,11.90
2022-09-27T03:21:43.106Z,11.80
2022-09-27T03:24:11.013Z,11.80
2022-09-27T03:26:39.005Z,11.90
2022-09-27T03:29:06.955Z,11.80
2022-09-27T03:31:34.936Z,11.80
2022-09-27T03:34:02.910Z,11.80
2022-09-27T03:36:32.723Z,11.80
2022-09-27T03:39:00.633Z,11.80
2022-09-27T03:41:28.586Z,11.80
2022-09-27T03:43:57.903Z,11.80
2022-09-27T03:46:26.164Z,11.90
2022-09-27T03:48:54.330Z,11.80
2022-09-27T03:51:22.273Z,11.80
2022-09-27T03:53:51.571Z,11.80
2022-09-27T03:56:19.865Z,11.80
2022-09-27T03:58:48.427Z,11.70
2022-09-27T04:01:16.677Z,11.80
2022-09-27T04:03:45.619Z,11.70
2022-09-27T04:06:13.958Z,11.70
2022-09-27T04:08:41.942Z,11.70
2022-09-27T04:11:11.377Z,11.70
2022-09-27T04:13:39.561Z,11.70
2022-09-27T04:16:08.369Z,11.70
2022-09-27T04:18:36.272Z,11.70
2022-09-27T04:21:04.279Z,11.70
2022-09-27T04:23:32.165Z,11.70
2022-09-27T04:26:00.240Z,11.70
2022-09-27T04:28:29.777Z,11.70
2022-09-27T04:30:57.813Z,11.70
2022-09-27T04:33:25.915Z,11.70
2022-09-27T04:36:13.822Z,11.70
2022-09-27T04:38:41.864Z,11.70
2022-09-27T04:41:10.464Z,11.70
2022-09-27T04:43:39.762Z,11.70
2022-09-27T04:46:07.958Z,11.70
2022-09-27T04:48:36.046Z,11.70
2022-09-27T04:51:04.068Z,11.70
2022-09-27T04:53:32.351Z,11.70
2022-09-27T04:56:01.456Z,11.70
2022-09-27T04:58:29.874Z,11.70
2022-09-27T05:00:59.534Z,11.70
2022-09-27T05:03:28.252Z,11.70
2022-09-27T05:05:56.531Z,11.60
2022-09-27T05:08:24.766Z,11.60
2022-09-27T05:10:52.724Z,11.60
2022-09-27T05:13:20.676Z,11.60
2022-09-27T05:15:48.583Z,11.60
2022-09-27T05:18:18.951Z,11.60
2022-09-27T05:20:47.112Z,11.60
2022-09-27T05:23:15.313Z,11.60
2022-09-27T05:25:43.421Z,11.60
2022-09-27T05:28:11.393Z,11.60
2022-09-27T05:30:39.497Z,11.60
2022-09-27T05:33:08.030Z,11.60
2022-09-27T05:35:38.034Z,11.60
2022-09-27T05:38:07.001Z,11.50
2022-09-27T05:40:42.646Z,11.50
2022-09-27T05:43:11.355Z,11.50
2022-09-27T05:45:39.400Z,11.50
2022-09-27T05:48:08.277Z,11.50
2022-09-27T05:50:37.588Z,11.50
2022-09-27T05:53:05.769Z,11.50
2022-09-27T05:55:34.101Z,11.50
2022-09-27T05:58:04.379Z,11.50
2022-09-27T06:00:33.181Z,11.50
2022-09-27T06:03:02.114Z,11.50
2022-09-27T06:05:31.507Z,11.60
2022-09-27T06:08:02.625Z,11.60
2022-09-27T06:10:32.251Z,11.50
2022-09-27T06:13:01.283Z,11.50
2022-09-27T06:15:29.892Z,11.50
2022-09-27T06:17:58.688Z,11.50
2022-09-27T06:20:26.804Z,11.50
2022-09-27T06:22:54.858Z,11.50
2022-09-27T06:25:24.484Z,11.50
2022-09-27T06:27:52.428Z,11.40
2022-09-27T06:30:20.740Z,11.40
2022-09-27T06:32:48.696Z,11.40
2022-09-27T06:35:16.714Z,11.40
2022-09-27T06:37:44.710Z,11.50
2022-09-27T06:40:12.874Z,11.40
2022-09-27T06:42:42.306Z,11.40
2022-09-27T06:45:11.117Z,11.40
2022-09-27T06:47:39.705Z,11.40
2022-09-27T06:50:08.503Z,11.40
2022-09-27T06:52:37.062Z,11.40
2022-09-27T06:55:06.661Z,11.40
2022-09-27T06:57:52.264Z,11.40
2022-09-27T07:00:27.670Z,11.40
2022-09-27T07:03:01.008Z,11.40
2022-09-27T07:05:29.807Z,11.40
2022-09-27T07:07:58.080Z,11.40
2022-09-27T07:10:27.229Z,11.40
2022-09-27T07:12:55.910Z,11.40
2022-09-27T07:15:25.344Z,11.40
2022-09-27T07:17:59.102Z,11.40
2022-09-27T07:20:27.310Z,11.40
2022-09-27T07:22:55.299Z,11.40
2022-09-27T07:25:23.471Z,11.40
2022-09-27T07:27:52.536Z,11.40
2022-09-27T07:30:21.207Z,11.40
2022-09-27T07:32:50.496Z,11.40
2022-09-27T07:35:18.592Z,11.40
2022-09-27T07:37:46.562Z,11.40
2022-09-27T07:40:14.735Z,11.40
2022-09-27T07:42:42.769Z,11.40
2022-09-27T07:45:11.484Z,11.40
2022-09-27T07:47:40.333Z,11.40
2022-09-27T07:50:11.428Z,11.40
2022-09-27T07:52:42.738Z,11.40
2022-09-27T07:55:10.678Z,11.40
2022-09-27T07:57:38.904Z,11.40
2022-09-27T08:00:09.023Z,11.40
2022-09-27T08:02:38.250Z,11.40
2022-09-27T08:05:07.057Z,11.40
2022-09-27T08:07:36.607Z,11.40
2022-09-27T08:10:04.969Z,11.40
2022-09-27T08:12:33.078Z,11.40
2022-09-27T08:15:01.519Z,11.40
2022-09-27T08:17:29.786Z,11.40
2022-09-27T08:19:57.805Z,11.40
2022-09-27T08:22:25.780Z,11.40
2022-09-27T08:24:55.315Z,11.40
2022-09-27T08:27:23.229Z,11.40
2022-09-27T08:29:51.191Z,11.40
2022-09-27T08:32:23.111Z,11.40
2022-09-27T08:34:51.595Z,11.50
2022-09-27T08:37:19.504Z,11.50
2022-09-27T08:39:48.219Z,11.50
2022-09-27T08:42:25.264Z,11.50
2022-09-27T08:45:03.634Z,11.50
2022-09-27T08:47:37.836Z,11.50
2022-09-27T08:50:15.895Z,11.50
2022-09-27T08:52:48.185Z,11.50
2022-09-27T08:55:28.925Z,11.50
2022-09-27T08:57:59.988Z,11.50
2022-09-27T09:00:30.388Z,11.60
2022-09-27T09:02:59.435Z,11.60
2022-09-27T09:05:31.433Z,11.60
2022-09-27T09:08:19.918Z,11.60
2022-09-27T09:11:11.486Z,11.60
2022-09-27T09:14:13.422Z,11.60
2022-09-27T09:16:47.324Z,11.60
2022-09-27T09:19:36.630Z,11.60
2022-09-27T09:22:14.437Z,11.60
2022-09-27T09:24:52.695Z,11.70
2022-09-27T09:27:26.573Z,11.70
2022-09-27T09:30:20.558Z,11.70
2022-09-27T09:33:05.298Z,11.70
2022-09-27T09:35:40.055Z,11.70
2022-09-27T09:38:15.193Z,11.70
2022-09-27T09:40:48.809Z,11.70
2022-09-27T09:43:21.376Z,11.70
2022-09-27T09:45:56.251Z,11.70
2022-09-27T09:48:31.433Z,11.80
2022-09-27T09:51:03.271Z,11.80
2022-09-27T09:53:43.233Z,11.80
2022-09-27T09:56:16.938Z,11.80
2022-09-27T09:58:49.203Z,11.80
2022-09-27T10:01:23.114Z,11.80
2022-09-27T10:03:51.253Z,11.80
2022-09-27T10:06:20.171Z,11.90
2022-09-27T10:08:49.982Z,11.90
2022-09-27T10:11:22.853Z,11.90
2022-09-27T10:13:51.037Z,11.90
2022-09-27T10:16:22.437Z,11.90
2022-09-27T10:18:53.977Z,11.90
2022-09-27T10:21:25.594Z,11.80
2022-09-27T10:24:06.226Z,11.80
2022-09-27T10:26:34.899Z,11.80
2022-09-27T10:29:17.766Z,11.80
2022-09-27T10:31:50.299Z,11.70
2022-09-27T10:34:28.117Z,11.70
2022-09-27T10:37:18.344Z,11.70
2022-09-27T10:39:47.976Z,11.70
2022-09-27T10:42:35.231Z,11.70
2022-09-27T10:45:26.743Z,11.60
2022-09-27T10:47:56.567Z,11.60
2022-09-27T10:50:49.090Z,11.60
2022-09-27T10:53:18.711Z,11.60
2022-09-27T10:55:50.080Z,11.60
2022-09-27T10:58:21.288Z,11.70
2022-09-27T11:00:56.192Z,11.70
2022-09-27T11:03:28.850Z,11.70
2022-09-27T11:05:59.232Z,11.70
2022-09-27T11:08:32.662Z,11.70
2022-09-27T11:11:16.315Z,11.70
2022-09-27T11:13:59.403Z,11.80
2022-09-27T11:16:48.092Z,11.80
2022-09-27T11:19:31.317Z,11.80
2022-09-27T11:22:06.217Z,11.90
2022-09-27T11:24:51.731Z,11.90
2022-09-27T11:27:30.310Z,11.90
2022-09-27T11:30:08.900Z,11.90
2022-09-27T11:32:57.178Z,11.90
2022-09-27T11:35:46.937Z,12.00
2022-09-27T11:38:48.048Z,12.00
2022-09-27T11:41:33.253Z,12.10
2022-09-27T11:44:36.542Z,12.10
2022-09-27T11:47:12.898Z,12.20
2022-09-27T11:50:15.717Z,12.10
2022-09-27T11:52:58.300Z,12.20
2022-09-27T11:55:39.641Z,12.20
2022-09-27T11:58:11.629Z,12.20
2022-09-27T12:00:52.104Z,12.30
2022-09-27T12:03:42.283Z,12.30
2022-09-27T12:06:14.333Z,12.30
2022-09-27T12:08:59.342Z,12.30
2022-09-27T12:11:32.048Z,12.30
2022-09-27T12:14:03.754Z,12.40
2022-09-27T12:16:33.727Z,12.40
2022-09-27T12:19:04.206Z,12.40
2022-09-27T12:21:33.909Z,12.50
2022-09-27T12:24:04.729Z,12.50
2022-09-27T12:26:37.514Z,12.60
2022-09-27T12:29:14.174Z,12.60
2022-09-27T12:31:47.489Z,12.70
2022-09-27T12:34:20.409Z,12.70
2022-09-27T12:36:52.515Z,12.70
2022-09-27T12:39:26.037Z,12.70
2022-09-27T12:42:02.005Z,12.70
2022-09-27T12:44:33.048Z,12.70
2022-09-27T12:47:11.099Z,12.70
2022-09-27T12:49:49.822Z,12.70
2022-09-27T12:52:25.348Z,12.70
2022-09-27T12:55:31.573Z,12.70
2022-09-27T12:58:40.512Z,12.70
2022-09-27T13:01:20.666Z,12.70
2022-09-27T13:04:00.736Z,12.70
2022-09-27T13:06:52.076Z,12.70
2022-09-27T13:09:45.130Z,12.70
2022-09-27T13:12:20.291Z,12.70
2022-09-27T13:14:58.200Z,12.70
2022-09-27T13:17:54.161Z,12.60
2022-09-27T13:20:46.337Z,12.70
2022-09-27T13:24:03.584Z,12.60
2022-09-27T13:26:47.282Z,12.70
2022-09-27T13:29:34.161Z,12.60
2022-09-27T13:32:17.169Z,12.70
2022-09-27T13:34:47.881Z,12.60
2022-09-27T13:37:37.372Z,12.60
2022-09-27T13:40:36.281Z,12.60
2022-09-27T13:43:42.654Z,12.50
2022-09-27T13:46:20.535Z,12.50
2022-09-27T13:48:55.318Z,12.60
2022-09-27T13:51:34.638Z,12.50
2022-09-27T14:05:32.105Z,12.60
2022-09-27T14:11:43.987Z,12.60
2022-09-27T14:14:18.311Z,12.60
2022-09-27T14:16:47.486Z,12.60
2022-09-27T14:19:18.188Z,12.60
2022-09-27T14:21:48.390Z,12.60
2022-09-27T14:24:23.364Z,12.60
2022-09-27T14:26:52.474Z,12.60
2022-09-27T14:29:22.124Z,12.60
2022-09-27T14:32:04.622Z,12.50
2022-09-27T14:34:33.112Z,12.50
2022-09-27T14:37:20.747Z,12.50
2022-09-27T14:39:54.910Z,12.50
2022-09-27T14:42:24.909Z,12.50
2022-09-27T14:44:53.518Z,12.50
2022-09-27T14:47:23.213Z,12.50
2022-09-27T14:49:52.867Z,12.50
2022-09-27T14:52:27.938Z,12.50
2022-09-27T14:55:01.089Z,12.50
2022-09-27T14:57:32.773Z,12.50
2022-09-27T15:00:04.707Z,12.50
2022-09-27T15:02:33.890Z,12.50
2022-09-27T15:05:02.021Z,12.50
2022-09-27T15:07:32.729Z,12.50
2022-09-27T15:10:00.595Z,12.50
2022-09-27T15:12:29.158Z,12.50
2022-09-27T15:14:59.432Z,12.50
2022-09-27T15:17:27.355Z,12.50
2022-09-27T15:20:03.373Z,12.50
2022-09-27T15:22:44.880Z,12.50
2022-09-27T15:25:34.302Z,12.50
2022-09-27T15:28:04.542Z,12.50
2022-09-27T15:30:36.701Z,12.50
2022-09-27T15:33:05.936Z,12.50
2022-09-27T15:35:35.919Z,12.50
2022-09-27T15:38:28.976Z,12.50
2022-09-27T15:41:08.535Z,12.50
2022-09-27T15:43:40.506Z,12.50
2022-09-27T15:46:27.993Z,12.50
2022-09-27T15:49:22.771Z,12.50
2022-09-27T15:51:52.695Z,12.50
2022-09-27T15:54:23.381Z,12.50
2022-09-27T15:56:55.456Z,12.50
2022-09-27T15:59:26.542Z,12.50
2022-09-27T16:01:58.628Z,12.50
2022-09-27T16:04:26.870Z,12.50
2022-09-27T16:06:55.345Z,12.40
2022-09-27T16:09:24.455Z,12.40
2022-09-27T16:11:52.509Z,12.40
2022-09-27T16:14:20.369Z,12.40
2022-09-27T16:16:50.483Z,12.40
2022-09-27T16:19:18.594Z,12.40
2022-09-27T16:21:47.520Z,12.40
2022-09-27T16:24:15.777Z,12.40
2022-09-27T16:26:45.063Z,12.40
2022-09-27T16:29:16.171Z,12.40
2022-09-27T16:31:45.121Z,12.40
2022-09-27T16:34:13.706Z,12.40
2022-09-27T16:36:41.878Z,12.40
2022-09-27T16:39:13.530Z,12.40
2022-09-27T16:41:43.372Z,12.40
2022-09-27T16:44:15.291Z,12.30
2022-09-27T16:50:50.126Z,12.30
2022-09-27T16:53:18.026Z,12.20
2022-09-27T16:55:45.853Z,12.20
2022-09-27T16:58:13.691Z,12.10
2022-09-27T17:00:43.240Z,12.10
2022-09-27T17:03:11.384Z,12.10
2022-09-27T17:05:39.222Z,12.10
2022-09-27T17:08:07.038Z,12.10
2022-09-27T17:10:35.794Z,12.00
2022-09-27T17:13:03.877Z,12.00
2022-09-27T17:15:31.798Z,12.00
2022-09-27T17:18:00.986Z,12.00
2022-09-27T17:20:29.090Z,12.00
2022-09-27T17:22:57.271Z,12.00
2022-09-27T17:25:25.081Z,12.00
2022-09-27T17:27:53.139Z,11.90
2022-09-27T17:30:20.975Z,11.90
2022-09-27T17:32:48.902Z,11.90
2022-09-27T17:35:18.272Z,11.90
2022-09-27T17:37:46.180Z,11.90
2022-09-27T17:40:14.333Z,11.90
2022-09-27T17:42:42.393Z,11.90
2022-09-27T17:45:11.039Z,11.90
2022-09-27T17:47:56.297Z,11.90
2022-09-27T17:50:28.775Z,11.90
2022-09-27T17:52:58.603Z,11.90
2022-09-27T17:55:27.502Z,11.80
2022-09-27T17:57:56.756Z,11.80
2022-09-27T18:00:24.575Z,11.80
2022-09-27T18:02:52.831Z,11.80
2022-09-27T18:05:21.872Z,11.80
2022-09-27T18:07:51.324Z,11.70
2022-09-27T18:10:19.460Z,11.70
2022-09-27T18:12:47.426Z,11.70
2022-09-27T18:15:21.578Z,11.70
2022-09-27T18:17:55.762Z,11.70
2022-09-27T18:20:25.826Z,11.70
2022-09-27T18:22:55.009Z,11.60
2022-09-27T18:25:24.973Z,11.70
2022-09-27T18:27:55.858Z,11.60
2022-09-27T18:30:23.734Z,11.60
2022-09-27T18:32:51.544Z,11.60
2022-09-27T18:35:20.281Z,11.50
2022-09-27T18:37:48.321Z,11.60
2022-09-27T18:40:32.315Z,11.50
2022-09-27T18:43:05.846Z,11.50
2022-09-27T18:45:37.260Z,11.50
2022-09-27T18:48:05.541Z,11.50
2022-09-27T18:50:36.407Z,11.50
2022-09-27T18:53:04.699Z,11.50
2022-09-27T18:55:39.789Z,11.50
2022-09-27T18:58:08.015Z,11.50
2022-09-27T19:00:36.294Z,11.40
2022-09-27T19:03:04.332Z,11.40
2022-09-27T19:05:32.113Z,11.40
2022-09-27T19:07:59.971Z,11.30
2022-09-27T19:10:27.794Z,11.30
2022-09-27T19:12:57.169Z,11.30
2022-09-27T19:15:25.543Z,11.30
2022-09-27T19:17:53.320Z,11.30
2022-09-27T19:20:21.143Z,11.30
2022-09-27T19:22:49.011Z,11.30
2022-09-27T19:25:16.919Z,11.30
2022-09-27T19:27:44.842Z,11.30
2022-09-27T19:30:14.986Z,11.20
2022-09-27T19:32:42.817Z,11.20
2022-09-27T19:35:11.579Z,11.20
2022-09-27T19:37:39.365Z,11.20
2022-09-27T19:40:08.084Z,11.20
2022-09-27T19:42:35.835Z,11.20
2022-09-27T19:45:06.802Z,11.20
2022-09-27T19:47:38.451Z,11.20
2022-09-27T19:50:06.888Z,11.20
2022-09-27T19:52:34.644Z,11.20
2022-09-27T19:55:02.410Z,11.20
2022-09-27T19:57:30.271Z,11.20
2022-09-27T19:59:58.029Z,11.20
2022-09-27T20:02:26.015Z,11.20
2022-09-27T20:04:55.228Z,11.20
2022-09-27T20:07:23.003Z,11.20
2022-09-27T20:09:52.164Z,11.20
2022-09-27T20:12:19.915Z,11.20
2022-09-27T20:14:47.693Z,11.20
2022-09-27T20:17:15.436Z,11.10
2022-09-27T20:19:43.215Z,11.20
2022-09-27T20:22:12.310Z,11.10
2022-09-27T20:24:40.175Z,11.10
2022-09-27T20:27:08.030Z,11.10
2022-09-27T20:29:36.204Z,11.10
2022-09-27T20:32:26.307Z,11.10
2022-09-27T20:34:51.833Z,11.10
2022-09-27T20:37:20.920Z,11.10
2022-09-27T20:39:49.190Z,11.10
2022-09-27T20:42:16.949Z,11.10
2022-09-27T20:44:44.718Z,11.10
2022-09-27T20:47:12.489Z,11.00
2022-09-27T20:49:42.808Z,11.00
2022-09-27T20:52:10.600Z,11.00
2022-09-27T20:54:39.798Z,11.00
2022-09-27T20:57:07.710Z,11.00
2022-09-27T20:59:35.565Z,11.00
2022-09-27T21:02:03.389Z,11.00
2022-09-27T21:04:31.926Z,11.10
2022-09-27T21:07:01.976Z,11.10
2022-09-27T21:09:29.783Z,11.00
2022-09-27T21:11:59.157Z,11.00
2022-09-27T21:14:28.386Z,11.00
2022-09-27T21:16:58.953Z,11.00
2022-09-27T21:19:29.611Z,11.00
2022-09-27T21:21:57.421Z,11.00
2022-09-27T21:24:25.248Z,11.00
2022-09-27T21:26:53.620Z,11.00
2022-09-27T21:29:23.670Z,11.00
2022-09-27T21:31:51.488Z,11.00
2022-09-27T21:34:19.378Z,11.00
2022-09-27T21:36:47.260Z,11.00
2022-09-27T21:39:15.438Z,11.00
2022-09-27T21:41:43.279Z,11.00
2022-09-27T21:44:11.696Z,11.00
2022-09-27T21:46:42.169Z,11.00
2022-09-27T21:49:11.004Z,11.00
2022-09-27T21:51:40.209Z,11.10
2022-09-27T21:54:09.992Z,11.00
2022-09-27T21:56:39.970Z,11.00
2022-09-27T21:59:10.764Z,11.00
2022-09-27T22:01:38.779Z,11.00
2022-09-27T22:04:08.114Z,11.00
2022-09-27T22:06:37.506Z,11.00
2022-09-27T22:09:07.317Z,11.00
2022-09-27T22:11:38.457Z,11.00
2022-09-27T22:14:07.040Z,11.00
2022-09-27T22:16:35.203Z,11.00
2022-09-27T22:19:03.536Z,11.00
2022-09-27T22:21:34.807Z,11.00
2022-09-27T22:24:07.451Z,11.00
2022-09-27T22:26:37.685Z,11.00
2022-09-27T22:29:06.526Z,11.00
2022-09-27T22:31:34.969Z,11.00
2022-09-27T22:34:04.584Z,11.00
2022-09-27T22:36:35.252Z,11.00
2022-09-27T22:39:03.448Z,11.00
2022-09-27T22:41:32.036Z,11.00
2022-09-27T22:44:01.150Z,11.00
2022-09-27T22:46:28.999Z,11.00
2022-09-27T22:48:56.861Z,11.00
2022-09-27T22:51:24.825Z,11.00
2022-09-27T22:53:54.289Z,11.00
2022-09-27T22:56:22.131Z,11.00
2022-09-27T22:58:50.613Z,11.00
2022-09-27T23:01:20.392Z,11.00
2022-09-27T23:03:49.500Z,11.00
2022-09-27T23:06:18.721Z,11.00
2022-09-27T23:08:47.325Z,11.00
2022-09-27T23:11:18.546Z,11.10
2022-09-27T23:13:46.888Z,11.10
2022-09-27T23:16:16.673Z,11.10
2022-09-27T23:18:46.331Z,11.10
2022-09-27T23:21:15.389Z,11.10
2022-09-27T23:23:44.746Z,11.10
2022-09-27T23:26:14.983Z,11.00
2022-09-27T23:28:44.497Z,11.00
2022-09-27T23:31:14.242Z,11.10
2022-09-27T23:33:43.689Z,11.10
2022-09-27T23:36:15.006Z,11.10
2022-09-27T23:38:43.433Z,11.10
2022-09-27T23:41:11.203Z,11.10
2022-09-27T23:43:39.174Z,11.10
2022-09-27T23:46:09.736Z,11.10
2022-09-27T23:48:38.173Z,11.10
2022-09-27T23:51:08.364Z,11.10
2022-09-27T23:53:36.378Z,11.10
2022-09-27T23:56:06.273Z,11.00
2022-09-27T23:58:34.745Z,11.10
